createdAt,value
2023-05-14T00:02:08.375Z,11.62
2023-05-14T00:04:38.504Z,12.05
2023-05-14T00:07:05.538Z,12.70
2023-05-14T00:09:33.994Z,11.88
2023-05-14T00:12:01.361Z,12.54
2023-05-14T00:14:29.530Z,11.93
2023-05-14T00:16:56.620Z,12.13
2023-05-14T00:19:26.340Z,12.98
2023-05-14T00:21:53.610Z,13.37
2023-05-14T00:24:23.406Z,13.28
2023-05-14T00:26:52.220Z,12.73
2023-05-14T00:29:20.884Z,12.96
2023-05-14T00:31:48.828Z,12.58
2023-05-14T00:34:20.769Z,12.95
2023-05-14T00:36:51.761Z,13.50
2023-05-14T00:39:20.451Z,13.78
2023-05-14T00:41:48.636Z,13.79
2023-05-14T00:44:18.511Z,13.55
2023-05-14T00:46:46.829Z,13.48
2023-05-14T00:49:14.005Z,13.54
2023-05-14T00:51:43.543Z,13.26
2023-05-14T00:54:11.047Z,11.99
2023-05-14T00:56:38.401Z,12.51
2023-05-14T00:59:05.827Z,13.23
2023-05-14T01:01:33.562Z,12.06
2023-05-14T01:04:00.763Z,12.36
2023-05-14T01:06:46.597Z,12.41
2023-05-14T01:09:19.337Z,12.22
2023-05-14T01:12:28.120Z,12.97
2023-05-14T01:14:59.825Z,13.37
2023-05-14T01:17:28.600Z,13.61
2023-05-14T01:19:55.734Z,11.62
2023-05-14T01:22:23.921Z,11.52
2023-05-14T01:24:51.399Z,12.01
2023-05-14T01:27:38.513Z,12.77
2023-05-14T01:30:17.969Z,12.37
2023-05-14T01:32:45.180Z,11.37
2023-05-14T01:35:12.710Z,10.98
2023-05-14T01:37:39.829Z,12.01
2023-05-14T01:40:09.252Z,12.18
2023-05-14T01:42:47.968Z,12.74
2023-05-14T01:45:15.706Z,13.06
2023-05-14T01:47:44.717Z,13.39
2023-05-14T01:50:11.602Z,12.12
2023-05-14T01:52:38.353Z,11.18
2023-05-14T01:55:08.992Z,10.96
2023-05-14T01:57:39.014Z,10.70
2023-05-14T02:00:06.600Z,10.85
2023-05-14T02:02:36.367Z,10.60
2023-05-14T02:05:05.528Z,10.25
2023-05-14T02:07:35.669Z,10.13
2023-05-14T02:10:03.809Z,10.47
2023-05-14T02:12:31.633Z,10.24
2023-05-14T02:15:00.384Z,10.05
2023-05-14T02:17:27.457Z,9.97
2023-05-14T02:19:54.972Z,9.98
2023-05-14T02:22:24.530Z,9.96
2023-05-14T02:24:51.247Z,9.75
2023-05-14T02:27:18.358Z,9.82
2023-05-14T02:29:47.317Z,9.96
2023-05-14T02:32:14.403Z,10.20
2023-05-14T02:34:42.335Z,10.09
2023-05-14T02:37:09.803Z,9.99
2023-05-14T02:39:39.027Z,9.84
2023-05-14T02:42:06.935Z,9.98
2023-05-14T02:44:34.064Z,9.86
2023-05-14T02:47:04.024Z,10.10
2023-05-14T02:49:35.062Z,9.97
2023-05-14T02:52:02.218Z,10.01
2023-05-14T02:54:29.457Z,9.85
2023-05-14T02:56:59.250Z,9.66
2023-05-14T02:59:29.190Z,9.72
2023-05-14T03:01:58.600Z,9.75
2023-05-14T03:04:28.840Z,9.79
2023-05-14T03:06:55.807Z,10.05
2023-05-14T03:09:23.416Z,10.53
2023-05-14T03:11:51.381Z,10.95
2023-05-14T03:14:18.138Z,11.30
2023-05-14T03:16:45.690Z,11.56
2023-05-14T03:19:14.522Z,11.07
2023-05-14T03:21:41.563Z,11.22
2023-05-14T03:24:10.322Z,11.48
2023-05-14T03:26:38.349Z,11.02
2023-05-14T03:29:08.011Z,11.30
2023-05-14T03:31:34.824Z,11.52
2023-05-14T03:34:01.751Z,12.31
2023-05-14T03:36:29.532Z,12.62
2023-05-14T03:38:56.736Z,12.56
2023-05-14T03:41:24.263Z,11.21
2023-05-14T03:43:56.487Z,12.03
2023-05-14T03:46:26.660Z,11.92
2023-05-14T03:48:54.640Z,12.59
2023-05-14T03:51:22.219Z,12.83
2023-05-14T03:53:51.770Z,13.15
2023-05-14T03:56:21.922Z,11.97
2023-05-14T03:58:52.921Z,11.35
2023-05-14T04:01:23.822Z,11.21
2023-05-14T04:03:53.774Z,10.59
2023-05-14T04:06:22.272Z,11.18
2023-05-14T04:08:49.451Z,10.54
2023-05-14T04:11:16.704Z,10.39
2023-05-14T04:13:45.652Z,10.37
2023-05-14T04:16:15.346Z,10.45
2023-05-14T04:18:42.590Z,10.37
2023-05-14T04:21:11.924Z,10.23
2023-05-14T04:23:40.145Z,10.11
2023-05-14T04:26:08.076Z,10.30
2023-05-14T04:28:36.465Z,10.24
2023-05-14T04:31:03.834Z,10.60
2023-05-14T04:33:30.604Z,11.39
2023-05-14T04:35:57.784Z,10.89
2023-05-14T04:38:24.913Z,10.55
2023-05-14T04:40:51.666Z,10.93
2023-05-14T04:43:18.824Z,10.69
2023-05-14T04:45:45.531Z,11.06
2023-05-14T04:48:12.308Z,11.05
2023-05-14T04:50:39.413Z,11.05
2023-05-14T04:53:08.949Z,10.65
2023-05-14T04:55:36.314Z,10.76
2023-05-14T04:58:03.107Z,11.03
2023-05-14T05:00:32.579Z,11.46
2023-05-14T05:03:01.133Z,10.58
2023-05-14T05:05:28.267Z,10.58
2023-05-14T05:07:57.848Z,10.17
2023-05-14T05:10:24.978Z,10.40
2023-05-14T05:12:52.031Z,10.12
2023-05-14T05:15:21.716Z,10.43
2023-05-14T05:17:50.036Z,10.35
2023-05-14T05:20:17.357Z,10.16
2023-05-14T05:22:44.091Z,10.16
2023-05-14T05:25:10.852Z,10.11
2023-05-14T05:27:40.653Z,10.06
2023-05-14T05:30:09.579Z,10.26
2023-05-14T05:32:36.782Z,10.45
2023-05-14T05:35:03.548Z,10.25
2023-05-14T05:37:30.990Z,10.49
2023-05-14T05:40:00.783Z,10.46
2023-05-14T05:42:27.518Z,10.38
2023-05-14T05:44:54.422Z,10.26
2023-05-14T05:47:21.626Z,10.24
2023-05-14T05:49:48.769Z,10.36
2023-05-14T05:52:15.876Z,10.62
2023-05-14T05:54:45.490Z,10.37
2023-05-14T05:57:12.620Z,10.35
2023-05-14T05:59:40.783Z,10.49
2023-05-14T06:02:10.331Z,10.58
2023-05-14T06:04:37.483Z,10.52
2023-05-14T06:07:05.275Z,10.76
2023-05-14T06:09:31.971Z,11.11
2023-05-14T06:11:59.404Z,11.43
2023-05-14T06:14:26.514Z,11.12
2023-05-14T06:16:53.763Z,10.58
2023-05-14T06:19:21.035Z,10.72
2023-05-14T06:21:50.382Z,10.78
2023-05-14T06:24:17.499Z,10.25
2023-05-14T06:26:44.227Z,10.50
2023-05-14T06:29:11.359Z,10.57
2023-05-14T06:31:40.647Z,10.49
2023-05-14T06:34:10.242Z,10.71
2023-05-14T06:36:39.831Z,11.20
2023-05-14T06:39:06.953Z,10.92
2023-05-14T06:41:36.316Z,10.57
2023-05-14T06:44:03.993Z,10.81
2023-05-14T06:46:31.140Z,10.47
2023-05-14T06:49:00.987Z,10.68
2023-05-14T06:51:28.238Z,10.79
2023-05-14T06:53:55.696Z,10.92
2023-05-14T06:56:22.546Z,10.89
2023-05-14T06:58:49.694Z,10.86
2023-05-14T07:01:16.860Z,11.30
2023-05-14T07:03:44.016Z,11.41
2023-05-14T07:06:12.507Z,11.85
2023-05-14T07:08:40.820Z,11.58
2023-05-14T07:11:07.949Z,11.16
2023-05-14T07:13:34.708Z,11.32
2023-05-14T07:16:01.426Z,10.86
2023-05-14T07:18:28.581Z,11.58
2023-05-14T07:20:55.782Z,11.30
2023-05-14T07:23:22.932Z,11.71
2023-05-14T07:25:50.739Z,11.31
2023-05-14T07:28:18.486Z,11.82
2023-05-14T07:30:45.704Z,11.72
2023-05-14T07:33:15.224Z,12.10
2023-05-14T07:35:43.310Z,11.63
2023-05-14T07:38:10.477Z,11.72
2023-05-14T07:40:37.624Z,12.31
2023-05-14T07:43:07.350Z,12.32
2023-05-14T07:45:34.504Z,12.66
2023-05-14T07:48:01.844Z,12.40
2023-05-14T07:50:28.748Z,12.81
2023-05-14T07:52:55.872Z,12.82
2023-05-14T07:55:22.635Z,12.20
2023-05-14T07:57:50.060Z,11.99
2023-05-14T08:00:16.898Z,12.47
2023-05-14T08:02:44.561Z,12.01
2023-05-14T08:05:11.509Z,12.24
2023-05-14T08:07:38.312Z,12.58
2023-05-14T08:10:08.538Z,12.92
2023-05-14T08:12:35.943Z,12.89
2023-05-14T08:15:03.177Z,12.76
2023-05-14T08:17:30.300Z,12.84
2023-05-14T08:19:58.521Z,12.41
2023-05-14T08:22:26.399Z,12.75
2023-05-14T08:24:54.498Z,12.55
2023-05-14T08:27:22.565Z,12.41
2023-05-14T08:29:49.716Z,12.66
2023-05-14T08:32:23.245Z,13.05
2023-05-14T08:34:50.848Z,12.64
2023-05-14T08:37:20.632Z,12.39
2023-05-14T08:39:47.773Z,12.44
2023-05-14T08:42:14.918Z,12.88
2023-05-14T08:44:56.740Z,13.20
2023-05-14T08:47:26.555Z,12.94
2023-05-14T08:50:00.983Z,13.46
2023-05-14T08:52:27.664Z,13.42
2023-05-14T08:54:58.873Z,13.99
2023-05-14T08:57:25.663Z,14.00
2023-05-14T08:59:53.035Z,14.25
2023-05-14T09:02:29.970Z,13.88
2023-05-14T09:04:58.364Z,13.94
2023-05-14T09:07:25.111Z,13.94
2023-05-14T09:09:52.078Z,14.44
2023-05-14T09:12:18.988Z,14.56
2023-05-14T09:14:45.797Z,14.06
2023-05-14T09:17:13.698Z,14.25
2023-05-14T09:19:44.023Z,13.96
2023-05-14T09:22:14.738Z,14.06
2023-05-14T09:24:41.467Z,14.36
2023-05-14T09:27:18.048Z,14.32
2023-05-14T09:29:45.158Z,13.93
2023-05-14T09:32:12.249Z,14.31
2023-05-14T09:34:42.112Z,14.19
2023-05-14T09:37:11.954Z,14.71
2023-05-14T09:39:40.052Z,14.14
2023-05-14T09:42:07.546Z,14.63
2023-05-14T09:44:34.678Z,14.34
2023-05-14T09:47:01.765Z,15.22
2023-05-14T09:49:28.989Z,15.63
2023-05-14T09:51:57.200Z,15.68
2023-05-14T09:54:25.001Z,15.76
2023-05-14T09:56:53.854Z,16.68
2023-05-14T09:59:22.087Z,16.73
2023-05-14T10:01:49.201Z,16.47
2023-05-14T10:04:16.319Z,16.10
2023-05-14T10:06:46.067Z,15.81
2023-05-14T10:09:13.270Z,15.81
2023-05-14T10:11:44.472Z,15.99
2023-05-14T10:14:18.601Z,15.47
2023-05-14T10:16:52.317Z,15.45
2023-05-14T10:19:21.228Z,15.73
2023-05-14T10:21:53.261Z,16.80
2023-05-14T10:24:21.355Z,17.03
2023-05-14T10:26:48.056Z,15.63
2023-05-14T10:29:14.784Z,15.47
2023-05-14T10:31:54.347Z,15.48
2023-05-14T10:34:35.838Z,15.67
2023-05-14T10:37:02.542Z,15.64
2023-05-14T10:39:57.107Z,15.93
2023-05-14T10:42:25.905Z,15.34
2023-05-14T10:45:15.216Z,15.31
2023-05-14T10:48:08.105Z,15.71
2023-05-14T10:50:34.943Z,16.26
2023-05-14T10:53:01.736Z,15.96
2023-05-14T10:55:44.777Z,15.29
2023-05-14T10:58:11.474Z,16.32
2023-05-14T11:00:38.289Z,15.80
2023-05-14T11:03:08.573Z,15.41
2023-05-14T11:05:35.368Z,15.44
2023-05-14T11:08:02.162Z,15.25
2023-05-14T11:10:28.953Z,15.83
2023-05-14T11:12:56.456Z,17.25
2023-05-14T11:15:24.329Z,16.77
2023-05-14T11:17:51.723Z,16.68
2023-05-14T11:20:18.479Z,15.81
2023-05-14T11:22:48.230Z,15.67
2023-05-14T11:25:16.665Z,15.28
2023-05-14T11:27:46.662Z,14.89
2023-05-14T11:30:19.660Z,15.37
2023-05-14T11:32:48.496Z,15.27
2023-05-14T11:35:18.170Z,15.45
2023-05-14T11:37:50.036Z,15.68
2023-05-14T11:40:16.998Z,15.76
2023-05-14T11:42:43.792Z,15.35
2023-05-14T11:45:13.979Z,15.40
2023-05-14T11:47:43.800Z,14.80
2023-05-14T11:50:13.435Z,15.47
2023-05-14T11:52:41.554Z,15.32
2023-05-14T11:55:15.735Z,15.44
2023-05-14T11:57:43.710Z,15.60
2023-05-14T12:00:37.072Z,15.35
2023-05-14T12:03:09.599Z,15.45
2023-05-14T12:05:39.249Z,15.16
2023-05-14T12:08:22.118Z,14.83
2023-05-14T12:10:52.829Z,15.49
2023-05-14T12:13:20.106Z,15.46
2023-05-14T12:15:48.287Z,15.91
2023-05-14T12:18:24.131Z,15.36
2023-05-14T12:20:54.044Z,15.53
2023-05-14T12:23:28.828Z,16.50
2023-05-14T12:25:55.668Z,16.12
2023-05-14T12:28:23.226Z,15.44
2023-05-14T12:30:56.402Z,14.95
2023-05-14T12:33:23.324Z,15.05
2023-05-14T12:35:50.241Z,14.29
2023-05-14T12:38:17.292Z,15.14
2023-05-14T12:40:44.039Z,15.61
2023-05-14T12:43:10.761Z,15.57
2023-05-14T12:45:38.955Z,15.17
2023-05-14T12:48:07.833Z,15.22
2023-05-14T12:50:34.654Z,15.89
2023-05-14T12:53:01.773Z,15.80
2023-05-14T12:55:31.709Z,16.14
2023-05-14T12:58:01.277Z,16.40
2023-05-14T13:00:28.571Z,16.45
2023-05-14T13:02:58.218Z,15.69
2023-05-14T13:05:25.818Z,15.67
2023-05-14T13:07:52.854Z,16.39
2023-05-14T13:10:20.576Z,16.27
2023-05-14T13:12:47.994Z,16.41
2023-05-14T13:15:14.779Z,16.73
2023-05-14T13:17:41.598Z,17.33
2023-05-14T13:20:09.832Z,17.26
2023-05-14T13:22:39.510Z,17.82
2023-05-14T13:25:08.168Z,17.16
2023-05-14T13:27:37.724Z,17.06
2023-05-14T13:30:04.812Z,16.06
2023-05-14T13:32:31.960Z,16.53
2023-05-14T13:34:58.730Z,15.56
2023-05-14T13:37:25.720Z,16.20
2023-05-14T13:39:52.451Z,16.95
2023-05-14T13:42:19.541Z,15.94
2023-05-14T13:44:46.844Z,15.83
2023-05-14T13:47:13.936Z,16.65
2023-05-14T13:49:42.691Z,16.53
2023-05-14T13:52:09.824Z,16.79
2023-05-14T13:54:36.562Z,17.83
2023-05-14T13:57:05.033Z,17.63
2023-05-14T13:59:32.308Z,16.73
2023-05-14T14:01:59.549Z,17.97
2023-05-14T14:04:28.953Z,18.73
2023-05-14T14:06:56.180Z,17.05
2023-05-14T14:09:23.329Z,17.36
2023-05-14T14:11:50.025Z,17.06
2023-05-14T14:14:17.276Z,16.92
2023-05-14T14:16:44.361Z,15.73
2023-05-14T14:19:16.045Z,16.29
2023-05-14T14:21:44.382Z,16.65
2023-05-14T14:24:11.551Z,15.98
2023-05-14T14:26:39.685Z,16.70
2023-05-14T14:29:06.850Z,16.09
2023-05-14T14:31:33.681Z,15.62
2023-05-14T14:34:00.816Z,15.77
2023-05-14T14:36:27.575Z,15.98
2023-05-14T14:38:54.322Z,16.48
2023-05-14T14:41:21.453Z,16.00
2023-05-14T14:43:48.159Z,16.69
2023-05-14T14:46:15.354Z,16.08
2023-05-14T14:48:42.550Z,16.21
2023-05-14T14:51:12.157Z,16.84
2023-05-14T14:53:39.321Z,17.84
2023-05-14T14:56:06.297Z,18.86
2023-05-14T14:58:33.040Z,18.98
2023-05-14T15:01:00.375Z,17.13
2023-05-14T15:03:27.695Z,16.41
2023-05-14T15:05:54.935Z,16.56
2023-05-14T15:08:25.069Z,17.73
2023-05-14T15:10:51.772Z,18.24
2023-05-14T15:13:19.157Z,17.19
2023-05-14T15:15:46.246Z,16.94
2023-05-14T15:18:13.268Z,16.28
2023-05-14T15:20:40.901Z,16.25
2023-05-14T15:23:13.332Z,16.04
2023-05-14T15:25:41.569Z,16.00
2023-05-14T15:28:08.376Z,16.63
2023-05-14T15:30:35.074Z,17.47
2023-05-14T15:33:02.243Z,16.31
2023-05-14T15:35:29.026Z,16.70
2023-05-14T15:37:56.115Z,16.67
2023-05-14T15:40:23.637Z,16.31
2023-05-14T15:42:50.904Z,16.19
2023-05-14T15:45:18.029Z,16.25
2023-05-14T15:47:44.788Z,16.51
2023-05-14T15:50:14.270Z,15.77
2023-05-14T15:52:41.441Z,15.71
2023-05-14T15:55:08.733Z,15.40
2023-05-14T15:57:38.204Z,15.73
2023-05-14T16:00:06.367Z,15.30
2023-05-14T16:02:33.568Z,15.24
2023-05-14T16:05:03.450Z,15.45
2023-05-14T16:07:30.582Z,15.95
2023-05-14T16:09:57.697Z,15.80
2023-05-14T16:12:25.455Z,15.06
2023-05-14T16:14:53.326Z,16.21
2023-05-14T16:17:20.009Z,17.05
2023-05-14T16:19:47.038Z,17.39
2023-05-14T16:22:16.466Z,18.56
2023-05-14T16:24:43.572Z,19.53
2023-05-14T16:27:11.464Z,20.02
2023-05-14T16:29:40.973Z,19.07
2023-05-14T16:32:08.144Z,18.89
2023-05-14T16:34:34.894Z,18.10
2023-05-14T16:37:02.085Z,16.98
2023-05-14T16:39:29.246Z,15.42
2023-05-14T16:41:56.332Z,14.60
2023-05-14T16:44:23.620Z,14.86
2023-05-14T16:46:50.856Z,14.85
2023-05-14T16:49:17.957Z,14.37
2023-05-14T16:51:45.952Z,15.45
2023-05-14T16:54:13.526Z,15.95
2023-05-14T16:56:40.265Z,13.81
2023-05-14T16:59:07.537Z,13.39
2023-05-14T17:01:36.037Z,12.94
2023-05-14T17:04:03.982Z,12.95
2023-05-14T17:06:32.454Z,13.00
2023-05-14T17:08:59.684Z,13.03
2023-05-14T17:11:33.686Z,13.01
2023-05-14T17:14:03.514Z,13.28
2023-05-14T17:16:30.287Z,13.13
2023-05-14T17:18:57.397Z,13.30
2023-05-14T17:21:24.158Z,13.23
2023-05-14T17:23:50.911Z,13.28
2023-05-14T17:26:17.859Z,14.00
2023-05-14T17:28:45.579Z,14.35
2023-05-14T17:31:12.740Z,14.60
2023-05-14T17:33:42.376Z,15.10
2023-05-14T17:36:10.320Z,13.65
2023-05-14T17:38:38.371Z,14.64
2023-05-14T17:41:05.568Z,15.11
2023-05-14T17:43:32.712Z,14.00
2023-05-14T17:45:59.368Z,13.32
2023-05-14T17:48:26.654Z,13.35
2023-05-14T17:50:53.390Z,13.05
2023-05-14T17:53:32.444Z,13.00
2023-05-14T17:55:59.574Z,12.89
2023-05-14T17:58:26.345Z,12.72
2023-05-14T18:00:53.128Z,12.64
2023-05-14T18:03:20.415Z,12.60
2023-05-14T18:05:50.064Z,12.57
2023-05-14T18:08:19.666Z,12.56
2023-05-14T18:10:46.754Z,13.01
2023-05-14T18:13:13.838Z,13.67
2023-05-14T18:15:41.644Z,13.97
2023-05-14T18:18:09.738Z,13.08
2023-05-14T18:20:39.325Z,12.82
2023-05-14T18:23:06.485Z,12.73
2023-05-14T18:25:33.231Z,12.70
2023-05-14T18:28:00.370Z,12.51
2023-05-14T18:30:27.478Z,12.32
2023-05-14T18:32:57.230Z,12.30
2023-05-14T18:35:24.552Z,12.17
2023-05-14T18:37:51.529Z,12.06
2023-05-14T18:40:18.992Z,11.90
2023-05-14T18:42:45.799Z,11.73
2023-05-14T18:45:12.592Z,11.61
2023-05-14T18:47:40.013Z,11.46
2023-05-14T18:50:09.056Z,11.34
2023-05-14T18:52:38.658Z,11.26
2023-05-14T18:55:07.210Z,10.98
2023-05-14T18:57:34.182Z,10.89
2023-05-14T19:00:02.757Z,10.76
2023-05-14T19:02:29.621Z,10.60
2023-05-14T19:04:58.149Z,10.49
2023-05-14T19:07:24.940Z,10.30
2023-05-14T19:09:52.138Z,10.11
2023-05-14T19:12:18.854Z,10.05
2023-05-14T19:14:46.248Z,10.03
2023-05-14T19:17:13.418Z,9.97
2023-05-14T19:19:40.538Z,9.93
2023-05-14T19:22:07.924Z,9.88
2023-05-14T19:24:35.286Z,9.84
2023-05-14T19:27:02.444Z,9.87
2023-05-14T19:29:29.193Z,9.84
2023-05-14T19:31:58.993Z,9.90
2023-05-14T19:34:28.657Z,9.86
2023-05-14T19:36:58.214Z,9.82
2023-05-14T19:39:27.872Z,9.84
2023-05-14T19:41:55.020Z,9.76
2023-05-14T19:44:22.140Z,9.78
2023-05-14T19:46:48.971Z,9.76
2023-05-14T19:49:16.208Z,9.76
2023-05-14T19:51:42.914Z,9.77
2023-05-14T19:54:10.169Z,9.73
2023-05-14T19:56:37.283Z,9.82
2023-05-14T19:59:04.378Z,9.82
2023-05-14T20:01:31.542Z,9.77
2023-05-14T20:03:58.315Z,9.80
2023-05-14T20:06:26.141Z,9.84
2023-05-14T20:08:53.246Z,9.86
2023-05-14T20:11:22.598Z,9.89
2023-05-14T20:13:50.048Z,9.91
2023-05-14T20:16:18.497Z,10.00
2023-05-14T20:18:46.115Z,10.06
2023-05-14T20:21:15.858Z,10.04
2023-05-14T20:23:42.971Z,10.03
2023-05-14T20:26:10.032Z,10.02
2023-05-14T20:28:37.364Z,10.06
2023-05-14T20:31:04.592Z,10.05
2023-05-14T20:33:34.271Z,10.21
2023-05-14T20:36:01.415Z,10.15
2023-05-14T20:38:28.207Z,10.32
2023-05-14T20:40:55.029Z,10.86
2023-05-14T20:43:22.534Z,11.35
2023-05-14T20:45:49.544Z,11.74
2023-05-14T20:48:16.907Z,12.21
2023-05-14T20:50:47.094Z,10.94
2023-05-14T20:53:14.493Z,11.20
2023-05-14T20:55:41.680Z,10.58
2023-05-14T20:58:08.428Z,11.37
2023-05-14T21:00:38.138Z,11.56
2023-05-14T21:03:07.882Z,11.46
2023-05-14T21:05:37.655Z,11.81
2023-05-14T21:08:05.156Z,11.66
2023-05-14T21:10:32.279Z,12.12
2023-05-14T21:13:01.734Z,12.10
2023-05-14T21:15:29.653Z,11.41
2023-05-14T21:17:57.473Z,11.19
2023-05-14T21:22:52.395Z,12.11
2023-05-14T21:25:19.485Z,11.37
2023-05-14T21:27:48.987Z,10.68
2023-05-14T21:30:16.460Z,10.32
2023-05-14T21:32:43.985Z,10.35
2023-05-14T21:35:11.458Z,10.11
2023-05-14T21:37:38.178Z,10.46
2023-05-14T21:40:08.410Z,10.60
2023-05-14T21:42:40.867Z,10.37
2023-05-14T21:45:08.837Z,10.21
2023-05-14T21:47:35.611Z,10.33
2023-05-14T21:50:02.644Z,9.89
2023-05-14T21:52:29.405Z,9.84
2023-05-14T21:54:56.429Z,9.99
2023-05-14T21:57:25.605Z,9.73
2023-05-14T21:59:54.190Z,9.63
2023-05-14T22:02:22.281Z,9.82
2023-05-14T22:04:49.468Z,9.56
2023-05-14T22:07:19.255Z,9.60
2023-05-14T22:09:46.365Z,9.63
2023-05-14T22:12:17.560Z,9.63
2023-05-14T22:14:54.745Z,9.61
2023-05-14T22:17:21.872Z,9.69
2023-05-14T22:19:51.488Z,9.67
2023-05-14T22:22:20.997Z,9.65
2023-05-14T22:24:48.134Z,9.71
2023-05-14T22:27:15.245Z,9.85
2023-05-14T22:29:42.326Z,9.95
2023-05-14T22:32:09.042Z,9.84
2023-05-14T22:34:41.069Z,9.98
2023-05-14T22:37:07.931Z,10.00
2023-05-14T22:39:34.709Z,10.06
2023-05-14T22:42:01.794Z,10.10
2023-05-14T22:44:29.978Z,10.16
2023-05-14T22:46:59.948Z,10.18
2023-05-14T22:49:30.684Z,10.31
2023-05-14T22:51:57.461Z,10.27
2023-05-14T22:54:24.725Z,10.31
2023-05-14T22:56:51.462Z,10.31
2023-05-14T22:59:18.193Z,10.25
2023-05-14T23:01:45.000Z,10.28
2023-05-14T23:04:13.027Z,10.32
2023-05-14T23:06:40.245Z,10.32
2023-05-14T23:09:09.822Z,10.23
2023-05-14T23:11:37.513Z,10.37
2023-05-14T23:14:04.182Z,10.36
2023-05-14T23:16:30.972Z,10.69
2023-05-14T23:18:58.053Z,10.47
2023-05-14T23:21:25.288Z,10.37
2023-05-14T23:23:51.986Z,10.33
2023-05-14T23:26:19.038Z,10.06
2023-05-14T23:28:50.881Z,10.00
2023-05-14T23:31:18.022Z,10.19
2023-05-14T23:33:45.092Z,10.16
2023-05-14T23:36:12.204Z,10.19
2023-05-14T23:38:38.951Z,10.22
2023-05-14T23:41:05.737Z,10.14
2023-05-14T23:43:32.488Z,10.18
2023-05-14T23:45:59.447Z,10.06
2023-05-14T23:48:26.179Z,10.07
2023-05-14T23:50:53.380Z,9.98
2023-05-14T23:53:21.116Z,9.93
2023-05-14T23:55:47.864Z,10.17
2023-05-14T23:58:15.094Z,9.96
